createdAt,value
2022-11-16T00:00:41.831Z,99601.22
2022-11-16T00:02:13.905Z,99600.41
2022-11-16T00:03:46.347Z,99601.31
2022-11-16T00:05:21.160Z,99600.50
2022-11-16T00:06:56.373Z,99599.66
2022-11-16T00:08:31.804Z,99598.78
2022-11-16T00:10:04.070Z,99599.66
2022-11-16T00:11:36.377Z,99597.94
2022-11-16T00:13:09.526Z,99603.06
2022-11-16T00:14:41.423Z,99596.19
2022-11-16T00:16:17.164Z,99591.91
2022-11-16T00:17:51.931Z,99597.94
2022-11-16T00:19:24.010Z,99584.25
2022-11-16T00:20:55.879Z,99587.69
2022-11-16T00:22:27.745Z,99584.31
2022-11-16T00:23:59.728Z,99586.06
2022-11-16T00:25:31.574Z,99590.34
2022-11-16T00:27:03.467Z,99586.06
2022-11-16T00:28:36.011Z,99578.34
2022-11-16T00:30:10.227Z,99573.19
2022-11-16T00:31:42.137Z,99564.59
2022-11-16T00:33:15.174Z,99568.88
2022-11-16T00:34:47.002Z,99565.44
2022-11-16T00:36:18.909Z,99565.44
2022-11-16T00:37:51.682Z,99569.75
2022-11-16T00:39:23.509Z,99570.63
2022-11-16T00:40:55.298Z,99554.28
2022-11-16T00:42:27.145Z,99555.13
2022-11-16T00:43:58.928Z,99556.03
2022-11-16T00:45:30.757Z,99557.72
2022-11-16T00:47:02.686Z,99555.97
2022-11-16T00:48:34.865Z,99562.84
2022-11-16T00:50:06.933Z,99555.97
2022-11-16T00:51:38.875Z,99568.00
2022-11-16T00:53:11.008Z,99565.38
2022-11-16T00:54:42.878Z,99568.84
2022-11-16T00:56:17.198Z,99561.97
2022-11-16T00:57:49.104Z,99563.69
2022-11-16T00:59:21.042Z,99556.78
2022-11-16T01:00:52.941Z,99556.78
2022-11-16T01:02:24.832Z,99543.88
2022-11-16T01:03:56.935Z,99543.03
2022-11-16T01:05:28.931Z,99547.31
2022-11-16T01:07:00.848Z,99538.66
2022-11-16T01:08:33.406Z,99547.31
2022-11-16T01:10:06.240Z,99549.81
2022-11-16T01:11:56.297Z,99546.38
2022-11-16T01:13:28.131Z,99541.22
2022-11-16T01:15:00.047Z,99548.97
2022-11-16T01:16:32.242Z,99548.97
2022-11-16T01:18:04.240Z,99539.53
2022-11-16T01:19:36.915Z,99536.97
2022-11-16T01:21:08.937Z,99530.13
2022-11-16T01:22:40.944Z,99533.56
2022-11-16T01:24:12.768Z,99527.53
2022-11-16T01:25:44.701Z,99531.81
2022-11-16T01:27:16.529Z,99531.84
2022-11-16T01:28:48.412Z,99533.56
2022-11-16T01:30:20.288Z,99531.88
2022-11-16T01:31:52.338Z,99521.56
2022-11-16T01:33:24.169Z,99515.50
2022-11-16T01:34:55.938Z,99516.41
2022-11-16T01:36:27.737Z,99510.44
2022-11-16T01:38:00.287Z,99507.84
2022-11-16T01:39:32.178Z,99507.84
2022-11-16T01:41:03.980Z,99492.38
2022-11-16T01:42:35.864Z,99494.09
2022-11-16T01:44:27.851Z,99493.25
2022-11-16T01:45:59.855Z,99488.94
2022-11-16T01:47:31.874Z,99496.69
2022-11-16T01:49:05.324Z,99486.38
2022-11-16T01:50:37.199Z,99485.53
2022-11-16T01:52:10.163Z,99487.22
2022-11-16T01:53:41.996Z,99490.69
2022-11-16T01:55:13.969Z,99476.97
2022-11-16T01:56:46.079Z,99481.28
2022-11-16T01:58:19.111Z,99476.97
2022-11-16T01:59:52.837Z,99480.44
2022-11-16T02:01:24.841Z,99472.72
2022-11-16T02:02:56.736Z,99469.25
2022-11-16T02:04:28.653Z,99464.97
2022-11-16T02:06:19.001Z,99458.97
2022-11-16T02:08:19.957Z,99457.28
2022-11-16T02:09:54.569Z,99449.53
2022-11-16T02:11:34.539Z,99453.00
2022-11-16T02:13:11.739Z,99459.84
2022-11-16T02:14:54.875Z,99458.16
2022-11-16T02:16:36.792Z,99459.84
2022-11-16T02:18:14.627Z,99458.16
2022-11-16T02:19:55.775Z,99457.31
2022-11-16T02:21:36.803Z,99449.59
2022-11-16T02:23:08.549Z,99449.59
2022-11-16T02:24:43.069Z,99455.63
2022-11-16T02:26:19.040Z,99461.69
2022-11-16T02:28:05.188Z,99463.41
2022-11-16T02:29:47.218Z,99453.09
2022-11-16T02:31:26.606Z,99451.38
2022-11-16T02:33:02.672Z,99447.94
2022-11-16T02:34:37.204Z,99449.63
2022-11-16T02:36:09.820Z,99446.19
2022-11-16T02:37:46.138Z,99447.94
2022-11-16T02:39:19.169Z,99445.44
2022-11-16T02:40:52.527Z,99441.19
2022-11-16T02:42:28.685Z,99442.06
2022-11-16T02:44:02.223Z,99445.47
2022-11-16T02:45:34.586Z,99439.44
2022-11-16T02:47:08.067Z,99434.25
2022-11-16T02:48:41.754Z,99435.13
2022-11-16T02:50:16.204Z,99424.00
2022-11-16T02:51:48.172Z,99425.72
2022-11-16T02:53:23.969Z,99419.72
2022-11-16T02:54:55.858Z,99422.31
2022-11-16T02:56:27.869Z,99425.72
2022-11-16T02:58:01.488Z,99436.03
2022-11-16T02:59:37.450Z,99423.97
2022-11-16T03:01:10.273Z,99424.88
2022-11-16T03:02:50.810Z,99424.00
2022-11-16T03:04:25.331Z,99430.06
2022-11-16T03:06:02.486Z,99427.47
2022-11-16T03:07:44.564Z,99429.22
2022-11-16T03:09:18.316Z,99415.50
2022-11-16T03:11:29.031Z,99412.09
2022-11-16T03:13:02.496Z,99411.28
2022-11-16T03:14:48.144Z,99413.00
2022-11-16T03:16:21.750Z,99415.59
2022-11-16T03:17:53.747Z,99419.06
2022-11-16T03:19:54.543Z,99411.34
2022-11-16T03:21:46.667Z,99404.47
2022-11-16T03:23:18.538Z,99402.78
2022-11-16T03:24:50.486Z,99401.03
2022-11-16T03:26:23.521Z,99399.38
2022-11-16T03:28:03.208Z,99403.63
2022-11-16T03:30:04.170Z,99408.78
2022-11-16T03:31:37.667Z,99400.19
2022-11-16T03:34:51.978Z,99389.88
2022-11-16T03:36:33.169Z,99383.00
2022-11-16T03:38:05.349Z,99392.47
2022-11-16T03:39:38.116Z,99388.16
2022-11-16T03:41:10.177Z,99381.31
2022-11-16T03:42:42.196Z,99369.28
2022-11-16T03:44:14.370Z,99372.69
2022-11-16T03:45:46.152Z,99365.84
2022-11-16T03:47:17.981Z,99368.41
2022-11-16T03:48:54.136Z,99366.69
2022-11-16T03:50:26.064Z,99362.47
2022-11-16T03:51:57.925Z,99369.34
2022-11-16T03:53:29.720Z,99374.53
2022-11-16T03:55:01.540Z,99373.69
2022-11-16T03:56:33.481Z,99368.53
2022-11-16T03:58:05.571Z,99359.97
2022-11-16T03:59:37.434Z,99370.28
2022-11-16T04:01:09.457Z,99363.38
2022-11-16T04:02:41.406Z,99359.91
2022-11-16T04:04:36.125Z,99358.16
2022-11-16T04:06:27.643Z,99352.16
2022-11-16T04:08:17.808Z,99352.13
2022-11-16T04:10:12.476Z,99355.53
2022-11-16T04:12:04.340Z,99351.25
2022-11-16T04:13:54.642Z,99358.13
2022-11-16T04:15:45.001Z,99346.91
2022-11-16T04:17:36.264Z,99356.38
2022-11-16T04:19:28.018Z,99341.81
2022-11-16T04:21:18.191Z,99346.91
2022-11-16T04:23:08.858Z,99339.22
2022-11-16T04:24:40.792Z,99341.81
2022-11-16T04:26:12.747Z,99342.69
2022-11-16T04:28:03.103Z,99340.09
2022-11-16T04:29:35.019Z,99337.53
2022-11-16T04:31:25.838Z,99336.66
2022-11-16T04:33:16.087Z,99328.94
2022-11-16T04:35:06.307Z,99327.25
2022-11-16T04:38:17.459Z,99316.22
2022-11-16T04:39:49.302Z,99326.53
2022-11-16T04:41:39.672Z,99332.59
2022-11-16T04:43:11.675Z,99330.03
2022-11-16T04:45:01.921Z,99333.50
2022-11-16T04:46:52.232Z,99327.53
2022-11-16T04:48:24.122Z,99312.06
2022-11-16T04:49:56.011Z,99319.81
2022-11-16T04:51:28.021Z,99313.81
2022-11-16T04:53:00.014Z,99319.81
2022-11-16T04:54:31.929Z,99318.09
2022-11-16T04:56:03.801Z,99315.56
2022-11-16T04:57:35.683Z,99323.28
2022-11-16T04:59:07.522Z,99309.56
2022-11-16T05:00:39.658Z,99307.88
2022-11-16T05:02:11.549Z,99301.00
2022-11-16T05:03:46.273Z,99298.47
2022-11-16T05:05:18.466Z,99311.38
2022-11-16T05:06:50.392Z,99314.00
2022-11-16T05:08:22.273Z,99315.75
2022-11-16T05:09:54.275Z,99313.16
2022-11-16T05:11:26.159Z,99314.91
2022-11-16T05:12:58.021Z,99320.94
2022-11-16T05:14:29.877Z,99320.13
2022-11-16T05:16:01.798Z,99316.69
2022-11-16T05:17:37.246Z,99316.72
2022-11-16T05:19:27.778Z,99319.25
2022-11-16T05:21:05.558Z,99312.41
2022-11-16T05:22:37.434Z,99305.47
2022-11-16T05:24:28.050Z,99307.25
2022-11-16T05:25:59.961Z,99314.09
2022-11-16T05:27:31.986Z,99306.38
2022-11-16T05:29:03.907Z,99307.25
2022-11-16T05:30:36.081Z,99307.28
2022-11-16T05:32:08.335Z,99302.97
2022-11-16T05:33:40.251Z,99297.81
2022-11-16T05:35:12.444Z,99298.69
2022-11-16T05:36:44.518Z,99300.44
2022-11-16T05:38:19.258Z,99301.28
2022-11-16T05:39:51.367Z,99298.72
2022-11-16T05:41:23.241Z,99303.00
2022-11-16T05:42:55.220Z,99306.44
2022-11-16T05:44:27.241Z,99301.28
2022-11-16T05:45:59.083Z,99304.72
2022-11-16T05:47:31.031Z,99295.25
2022-11-16T05:49:03.094Z,99299.53
2022-11-16T05:50:39.885Z,99296.13
2022-11-16T05:53:46.221Z,99309.88
2022-11-16T05:55:18.105Z,99300.47
2022-11-16T05:56:50.105Z,99298.81
2022-11-16T05:58:22.012Z,99301.44
2022-11-16T05:59:53.827Z,99300.59
2022-11-16T06:01:26.045Z,99300.53
2022-11-16T06:02:57.955Z,99293.72
2022-11-16T06:04:30.018Z,99300.56
2022-11-16T06:06:02.627Z,99297.97
2022-11-16T06:07:34.549Z,99289.41
2022-11-16T06:09:06.671Z,99297.97
2022-11-16T06:10:38.524Z,99298.81
2022-11-16T06:12:10.391Z,99296.22
2022-11-16T06:13:42.248Z,99303.09
2022-11-16T06:15:14.187Z,99297.06
2022-11-16T06:16:46.048Z,99298.78
2022-11-16T06:18:18.001Z,99297.06
2022-11-16T06:19:50.001Z,99298.81
2022-11-16T06:21:21.999Z,99294.53
2022-11-16T06:22:54.211Z,99290.22
2022-11-16T06:24:26.169Z,99291.91
2022-11-16T06:25:58.166Z,99288.47
2022-11-16T06:27:30.044Z,99285.00
2022-11-16T06:29:01.954Z,99287.59
2022-11-16T06:30:33.922Z,99286.75
2022-11-16T06:32:05.893Z,99288.41
2022-11-16T06:33:38.033Z,99289.25
2022-11-16T06:35:10.460Z,99280.69
2022-11-16T06:36:42.358Z,99285.06
2022-11-16T06:38:19.022Z,99289.41
2022-11-16T06:39:51.062Z,99285.94
2022-11-16T06:41:23.030Z,99285.91
2022-11-16T06:42:54.872Z,99285.06
2022-11-16T06:44:26.840Z,99290.25
2022-11-16T06:45:58.935Z,99279.09
2022-11-16T06:47:30.851Z,99285.97
2022-11-16T06:49:02.702Z,99285.09
2022-11-16T06:50:35.254Z,99289.38
2022-11-16T06:52:07.087Z,99284.19
2022-11-16T06:53:39.150Z,99279.94
2022-11-16T06:55:10.992Z,99279.94
2022-11-16T06:56:42.842Z,99273.97
2022-11-16T06:58:14.821Z,99275.69
2022-11-16T06:59:46.748Z,99281.69
2022-11-16T07:01:19.188Z,99271.38
2022-11-16T07:02:51.383Z,99277.38
2022-11-16T07:04:23.444Z,99271.38
2022-11-16T07:05:55.812Z,99275.72
2022-11-16T07:07:27.922Z,99268.03
2022-11-16T07:08:59.804Z,99268.03
2022-11-16T07:10:31.654Z,99271.44
2022-11-16T07:12:04.366Z,99265.41
2022-11-16T07:13:36.824Z,99266.31
2022-11-16T07:15:08.971Z,99268.81
2022-11-16T07:16:41.039Z,99272.28
2022-11-16T07:18:13.232Z,99275.69
2022-11-16T07:19:45.183Z,99269.63
2022-11-16T07:22:48.884Z,99267.88
2022-11-16T07:24:20.818Z,99260.06
2022-11-16T07:25:52.734Z,99254.91
2022-11-16T07:27:24.718Z,99254.88
2022-11-16T07:28:56.662Z,99254.00
2022-11-16T07:30:28.893Z,99251.44
2022-11-16T07:32:01.053Z,99244.59
2022-11-16T07:33:32.940Z,99242.03
2022-11-16T07:35:14.781Z,99235.97
2022-11-16T07:36:46.988Z,99238.47
2022-11-16T07:38:18.900Z,99232.41
2022-11-16T07:39:50.837Z,99226.41
2022-11-16T07:41:22.834Z,99221.22
2022-11-16T07:42:57.506Z,99224.66
2022-11-16T07:44:29.628Z,99227.19
2022-11-16T07:46:44.654Z,99221.16
2022-11-16T07:48:01.276Z,99221.19
2022-11-16T07:51:14.403Z,99215.19
2022-11-16T07:52:46.996Z,99215.16
2022-11-16T07:54:18.846Z,99208.25
2022-11-16T07:55:54.070Z,99207.28
2022-11-16T07:57:26.025Z,99208.97
2022-11-16T07:58:59.412Z,99200.38
2022-11-16T08:00:31.455Z,99198.69
2022-11-16T08:02:03.321Z,99202.00
2022-11-16T08:03:35.782Z,99203.72
2022-11-16T08:05:07.840Z,99207.13
2022-11-16T08:06:39.707Z,99201.09
2022-11-16T08:08:12.049Z,99201.00
2022-11-16T08:09:44.061Z,99201.81
2022-11-16T08:11:15.989Z,99197.44
2022-11-16T08:12:47.816Z,99196.44
2022-11-16T08:14:19.863Z,99191.13
2022-11-16T08:15:51.775Z,99188.47
2022-11-16T08:17:23.751Z,99184.84
2022-11-16T08:18:55.736Z,99182.13
2022-11-16T08:22:05.607Z,99181.88
2022-11-16T08:23:37.547Z,99182.59
2022-11-16T08:25:10.032Z,99179.03
2022-11-16T08:26:41.945Z,99179.84
2022-11-16T08:28:14.881Z,99172.88
2022-11-16T08:29:47.147Z,99177.06
2022-11-16T08:31:21.284Z,99178.63
2022-11-16T08:32:53.254Z,99175.91
2022-11-16T08:34:25.331Z,99172.25
2022-11-16T08:35:57.601Z,99163.50
2022-11-16T08:37:29.568Z,99163.31
2022-11-16T08:39:02.015Z,99158.00
2022-11-16T08:40:33.976Z,99156.97
2022-11-16T08:42:06.085Z,99153.34
2022-11-16T08:43:42.585Z,99149.69
2022-11-16T08:45:14.529Z,99147.72
2022-11-16T08:46:46.584Z,99141.50
2022-11-16T08:48:18.791Z,99144.75
2022-11-16T08:49:50.670Z,99135.94
2022-11-16T08:53:08.176Z,99135.44
2022-11-16T08:54:41.668Z,99132.66
2022-11-16T08:56:14.012Z,99135.88
2022-11-16T08:57:46.064Z,99127.06
2022-11-16T08:59:17.999Z,99115.66
2022-11-16T09:00:49.899Z,99114.56
2022-11-16T09:02:25.909Z,99110.84
2022-11-16T09:03:58.043Z,99115.78
2022-11-16T09:05:30.034Z,99106.91
2022-11-16T09:07:02.134Z,99108.38
2022-11-16T09:08:34.602Z,99104.66
2022-11-16T09:10:07.459Z,99100.06
2022-11-16T09:11:39.561Z,99098.91
2022-11-16T09:13:11.531Z,99096.09
2022-11-16T09:14:43.575Z,99091.41
2022-11-16T09:16:18.466Z,99092.69
2022-11-16T09:17:55.290Z,99089.75
2022-11-16T09:19:27.484Z,99088.38
2022-11-16T09:20:59.678Z,99079.41
2022-11-16T09:22:31.661Z,99079.84
2022-11-16T09:24:04.261Z,99080.44
2022-11-16T09:25:36.381Z,99078.28
2022-11-16T09:27:08.281Z,99075.34
2022-11-16T09:28:43.255Z,99070.63
2022-11-16T09:30:15.652Z,99063.31
2022-11-16T09:31:47.811Z,99065.47
2022-11-16T09:33:20.558Z,99067.47
2022-11-16T09:34:52.548Z,99054.81
2022-11-16T09:36:24.960Z,99056.16
2022-11-16T09:37:56.924Z,99052.19
2022-11-16T09:39:32.439Z,99047.44
2022-11-16T09:43:10.276Z,99039.47
2022-11-16T09:45:09.272Z,99033.69
2022-11-16T09:46:47.405Z,99029.44
2022-11-16T09:50:04.455Z,99016.06
2022-11-16T09:51:36.599Z,99013.75
2022-11-16T09:53:29.031Z,99006.97
2022-11-16T09:55:02.155Z,98999.38
2022-11-16T09:56:37.716Z,99010.91
2022-11-16T09:58:12.583Z,99000.91
2022-11-16T09:59:45.808Z,99001.97
2022-11-16T10:01:27.060Z,99002.88
2022-11-16T10:03:05.314Z,98989.06
2022-11-16T10:04:44.332Z,98984.78
2022-11-16T10:06:29.091Z,98992.72
2022-11-16T10:08:07.333Z,98978.28
2022-11-16T10:09:39.311Z,98975.88
2022-11-16T10:11:24.389Z,98984.78
2022-11-16T10:12:56.263Z,98973.88
2022-11-16T10:14:47.206Z,98971.84
2022-11-16T10:16:20.222Z,98968.09
2022-11-16T10:18:12.205Z,98961.69
2022-11-16T10:20:16.291Z,98947.22
2022-11-16T10:22:00.156Z,98959.69
2022-11-16T10:23:35.931Z,98953.38
2022-11-16T10:25:17.760Z,98946.09
2022-11-16T10:26:51.815Z,98942.25
2022-11-16T10:28:26.817Z,98943.75
2022-11-16T10:29:58.940Z,98940.06
2022-11-16T10:31:46.155Z,98939.78
2022-11-16T10:33:22.034Z,98939.94
2022-11-16T10:35:14.567Z,98931.72
2022-11-16T10:36:46.558Z,98934.16
2022-11-16T10:38:20.346Z,98930.50
2022-11-16T10:39:53.756Z,98923.34
2022-11-16T10:41:33.176Z,98917.84
2022-11-16T10:43:11.421Z,98918.50
2022-11-16T10:45:19.115Z,98911.88
2022-11-16T10:47:11.604Z,98907.72
2022-11-16T10:48:47.340Z,98905.56
2022-11-16T10:50:32.902Z,98902.38
2022-11-16T10:52:04.958Z,98912.41
2022-11-16T10:53:40.657Z,98914.81
2022-11-16T10:55:15.728Z,98914.16
2022-11-16T10:56:48.370Z,98915.47
2022-11-16T10:58:20.196Z,98918.63
2022-11-16T10:59:56.676Z,98918.44
2022-11-16T11:01:58.177Z,98913.19
2022-11-16T11:05:06.330Z,98903.28
2022-11-16T11:06:38.360Z,98904.34
2022-11-16T11:08:11.670Z,98896.00
2022-11-16T11:09:43.697Z,98895.91
2022-11-16T11:11:39.166Z,98898.16
2022-11-16T11:13:11.077Z,98893.34
2022-11-16T11:14:43.160Z,98884.34
2022-11-16T11:16:16.808Z,98880.47
2022-11-16T11:17:49.579Z,98883.66
2022-11-16T11:19:25.866Z,98876.22
2022-11-16T11:21:19.600Z,98873.94
2022-11-16T11:23:01.884Z,98871.03
2022-11-16T11:24:49.028Z,98875.59
2022-11-16T11:26:31.720Z,98865.34
2022-11-16T11:28:17.294Z,98862.81
2022-11-16T11:29:51.558Z,98869.25
2022-11-16T11:31:27.665Z,98862.72
2022-11-16T11:32:59.814Z,98862.22
2022-11-16T11:34:32.904Z,98854.66
2022-11-16T11:36:05.995Z,98855.50
2022-11-16T11:37:38.152Z,98856.56
2022-11-16T11:39:13.257Z,98844.69
2022-11-16T11:40:57.821Z,98845.75
2022-11-16T11:42:29.724Z,98839.03
2022-11-16T11:44:03.608Z,98848.69
2022-11-16T11:45:38.468Z,98845.13
2022-11-16T11:49:10.121Z,98841.78
2022-11-16T11:50:45.192Z,98842.28
2022-11-16T11:52:22.171Z,98841.13
2022-11-16T11:53:55.123Z,98843.22
2022-11-16T11:55:27.212Z,98848.06
2022-11-16T11:56:59.410Z,98845.84
2022-11-16T11:58:35.862Z,98842.78
2022-11-16T12:00:09.544Z,98845.91
2022-11-16T12:01:55.458Z,98847.22
2022-11-16T12:03:31.986Z,98847.38
2022-11-16T12:05:07.177Z,98845.38
2022-11-16T12:06:58.014Z,98845.28
2022-11-16T12:08:34.950Z,98837.91
2022-11-16T12:10:12.868Z,98836.81
2022-11-16T12:12:03.300Z,98836.53
2022-11-16T12:13:44.374Z,98836.09
2022-11-16T12:15:16.454Z,98824.59
2022-11-16T12:16:53.920Z,98819.81
2022-11-16T12:18:35.167Z,98821.53
2022-11-16T12:20:26.896Z,98817.66
2022-11-16T12:22:01.795Z,98823.25
2022-11-16T12:23:37.103Z,98828.16
2022-11-16T12:25:18.346Z,98820.22
2022-11-16T12:27:02.965Z,98820.66
2022-11-16T12:28:48.422Z,98831.69
2022-11-16T12:30:22.863Z,98830.63
2022-11-16T12:33:34.434Z,98831.91
2022-11-16T12:35:06.739Z,98835.47
2022-11-16T12:36:51.319Z,98839.88
2022-11-16T12:38:26.673Z,98839.13
2022-11-16T12:40:17.119Z,98830.84
2022-11-16T12:41:53.925Z,98825.81
2022-11-16T12:43:35.107Z,98829.69
2022-11-16T12:45:17.031Z,98824.66
2022-11-16T12:46:52.096Z,98825.59
2022-11-16T12:48:33.849Z,98825.91
2022-11-16T12:50:15.652Z,98823.59
2022-11-16T12:51:50.476Z,98826.41
2022-11-16T12:53:34.326Z,98821.19
2022-11-16T12:55:28.249Z,98824.75
2022-11-16T12:57:08.537Z,98822.59
2022-11-16T12:58:46.081Z,98820.00
2022-11-16T13:00:18.890Z,98818.50
2022-11-16T13:01:50.951Z,98811.69
2022-11-16T13:03:39.974Z,98811.06
2022-11-16T13:05:16.896Z,98808.66
2022-11-16T13:06:50.805Z,98804.56
2022-11-16T13:08:33.381Z,98803.91
2022-11-16T13:10:14.555Z,98799.72
2022-11-16T13:11:48.700Z,98801.59
2022-11-16T13:13:39.582Z,98812.28
2022-11-16T13:15:20.028Z,98812.50
2022-11-16T13:16:52.081Z,98815.38
2022-11-16T13:18:24.205Z,98812.03
2022-11-16T13:20:15.247Z,98816.66
2022-11-16T13:21:47.642Z,98813.28
2022-11-16T13:23:31.859Z,98806.25
2022-11-16T13:25:06.772Z,98805.53
2022-11-16T13:26:41.187Z,98808.22
2022-11-16T13:28:33.177Z,98798.63
2022-11-16T13:30:15.337Z,98801.97
2022-11-16T13:33:29.315Z,98800.38
2022-11-16T13:35:01.204Z,98792.63
2022-11-16T13:36:33.111Z,98797.00
2022-11-16T13:38:04.991Z,98801.50
2022-11-16T13:39:55.140Z,98803.38
2022-11-16T13:41:28.840Z,98797.53
2022-11-16T13:43:09.788Z,98796.66
2022-11-16T13:44:41.887Z,98806.53
2022-11-16T13:46:27.680Z,98802.31
2022-11-16T13:48:10.886Z,98802.59
2022-11-16T13:49:49.229Z,98802.69
2022-11-16T13:51:21.904Z,98800.38
2022-11-16T13:53:46.226Z,98805.00
2022-11-16T13:54:55.458Z,98800.03
2022-11-16T13:56:29.573Z,98796.78
2022-11-16T13:58:02.926Z,98789.13
2022-11-16T13:59:35.464Z,98796.44
2022-11-16T14:01:10.996Z,98795.69
2022-11-16T14:02:43.424Z,98792.31
2022-11-16T14:04:33.963Z,98795.09
2022-11-16T14:06:07.246Z,98789.31
2022-11-16T14:07:43.290Z,98782.59
2022-11-16T14:09:33.905Z,98787.16
2022-11-16T14:11:06.549Z,98783.91
2022-11-16T14:12:38.748Z,98783.06
2022-11-16T14:14:33.203Z,98778.97
2022-11-16T14:16:17.673Z,98780.84
2022-11-16T14:17:53.845Z,98780.19
2022-11-16T14:19:49.354Z,98780.38
2022-11-16T14:21:36.304Z,98774.50
2022-11-16T14:23:26.269Z,98779.81
2022-11-16T14:25:14.932Z,98786.00
2022-11-16T14:26:46.989Z,98773.19
2022-11-16T14:28:24.800Z,98774.25
2022-11-16T14:29:56.775Z,98775.25
2022-11-16T14:33:01.500Z,98773.94
2022-11-16T14:34:44.056Z,98772.47
2022-11-16T14:36:15.991Z,98763.94
2022-11-16T14:37:55.960Z,98765.06
2022-11-16T14:39:32.569Z,98769.63
2022-11-16T14:41:10.369Z,98762.94
2022-11-16T14:43:10.014Z,98753.69
2022-11-16T14:44:39.542Z,98760.94
2022-11-16T14:46:17.990Z,98766.38
2022-11-16T14:47:49.977Z,98757.13
2022-11-16T14:49:22.321Z,98766.16
2022-11-16T14:51:07.575Z,98760.31
2022-11-16T14:52:44.299Z,98763.19
2022-11-16T14:54:31.148Z,98757.34
2022-11-16T14:56:15.963Z,98762.00
2022-11-16T14:57:50.279Z,98758.06
2022-11-16T14:59:22.494Z,98758.34
2022-11-16T15:00:55.823Z,98756.84
2022-11-16T15:02:27.731Z,98760.63
2022-11-16T15:04:03.720Z,98760.81
2022-11-16T15:07:13.383Z,98758.84
2022-11-16T15:08:46.126Z,98760.78
2022-11-16T15:10:19.417Z,98763.66
2022-11-16T15:12:09.695Z,98763.88
2022-11-16T15:13:41.668Z,98759.88
2022-11-16T15:15:13.597Z,98761.06
2022-11-16T15:16:49.550Z,98761.31
2022-11-16T15:18:23.504Z,98765.09
2022-11-16T15:19:56.223Z,98760.06
2022-11-16T15:21:28.982Z,98764.69
2022-11-16T15:23:01.518Z,98764.13
2022-11-16T15:24:34.298Z,98761.84
2022-11-16T15:26:06.361Z,98766.38
2022-11-16T15:27:39.478Z,98763.19
2022-11-16T15:29:15.322Z,98756.53
2022-11-16T15:30:49.637Z,98753.28
2022-11-16T15:32:21.735Z,98762.22
2022-11-16T15:33:53.912Z,98758.25
2022-11-16T15:35:32.800Z,98760.28
2022-11-16T15:37:04.834Z,98751.94
2022-11-16T15:38:38.001Z,98757.41
2022-11-16T15:41:42.776Z,98763.09
2022-11-16T15:43:14.794Z,98751.22
2022-11-16T15:44:46.749Z,98760.22
2022-11-16T15:46:18.685Z,98754.41
2022-11-16T15:47:54.089Z,98758.03
2022-11-16T15:49:29.161Z,98759.94
2022-11-16T15:51:05.070Z,98751.44
2022-11-16T15:52:46.120Z,98756.88
2022-11-16T15:54:54.835Z,98757.03
2022-11-16T15:56:26.738Z,98758.28
2022-11-16T15:58:14.931Z,98759.34
2022-11-16T15:59:48.150Z,98753.53
2022-11-16T16:01:20.528Z,98757.22
2022-11-16T16:02:52.559Z,98754.75
2022-11-16T16:04:24.730Z,98747.94
2022-11-16T16:05:56.710Z,98748.03
2022-11-16T16:07:42.109Z,98755.06
2022-11-16T16:09:19.152Z,98747.50
2022-11-16T16:11:09.916Z,98754.53
2022-11-16T16:12:51.646Z,98746.91
2022-11-16T16:14:25.006Z,98741.00
2022-11-16T16:16:15.604Z,98744.66
2022-11-16T16:17:47.596Z,98744.03
2022-11-16T16:19:28.572Z,98752.03
2022-11-16T16:21:00.652Z,98749.66
2022-11-16T16:22:38.604Z,98743.00
2022-11-16T16:24:12.303Z,98749.19
2022-11-16T16:25:50.145Z,98748.44
2022-11-16T16:27:26.372Z,98752.09
2022-11-16T16:30:40.091Z,98750.72
2022-11-16T16:32:13.580Z,98743.97
2022-11-16T16:33:45.881Z,98746.72
2022-11-16T16:35:18.767Z,98741.69
2022-11-16T16:36:51.107Z,98731.41
2022-11-16T16:38:22.983Z,98741.97
2022-11-16T16:39:54.918Z,98733.41
2022-11-16T16:41:26.994Z,98731.78
2022-11-16T16:42:59.320Z,98727.56
2022-11-16T16:46:04.308Z,98734.69
2022-11-16T16:47:36.251Z,98729.66
2022-11-16T16:49:08.469Z,98730.66
2022-11-16T16:50:40.473Z,98735.09
2022-11-16T16:52:13.124Z,98732.50
2022-11-16T16:53:45.084Z,98742.88
2022-11-16T16:55:17.053Z,98736.84
2022-11-16T16:56:48.917Z,98734.25
2022-11-16T16:58:21.123Z,98739.53
2022-11-16T16:59:53.148Z,98735.25
2022-11-16T17:01:26.900Z,98738.69
2022-11-16T17:02:58.969Z,98743.06
2022-11-16T17:04:30.891Z,98736.22
2022-11-16T17:06:03.002Z,98741.28
2022-11-16T17:07:35.414Z,98739.53
2022-11-16T17:09:07.380Z,98736.91
2022-11-16T17:10:39.875Z,98738.69
2022-11-16T17:12:11.836Z,98731.72
2022-11-16T17:13:43.794Z,98736.16
2022-11-16T17:15:19.331Z,98731.00
2022-11-16T17:16:51.947Z,98727.56
2022-11-16T17:18:23.998Z,98731.00
2022-11-16T17:19:56.160Z,98737.91
2022-11-16T17:21:28.241Z,98730.94
2022-11-16T17:23:00.152Z,98731.78
2022-11-16T17:24:32.112Z,98731.78
2022-11-16T17:26:05.252Z,98725.75
2022-11-16T17:27:37.228Z,98735.31
2022-11-16T17:29:09.104Z,98737.13
2022-11-16T17:30:41.112Z,98736.22
2022-11-16T17:32:13.082Z,98730.13
2022-11-16T17:33:45.048Z,98733.63
2022-11-16T17:35:17.469Z,98733.63
2022-11-16T17:36:49.766Z,98733.63
2022-11-16T17:38:21.873Z,98734.53
2022-11-16T17:39:54.075Z,98732.84
2022-11-16T17:41:26.215Z,98732.00
2022-11-16T17:42:58.337Z,98730.25
2022-11-16T17:44:30.719Z,98729.34
2022-11-16T17:46:06.631Z,98732.72
2022-11-16T17:47:39.715Z,98729.13
2022-11-16T17:49:11.756Z,98723.88
2022-11-16T17:50:50.351Z,98729.00
2022-11-16T17:52:22.232Z,98729.84
2022-11-16T17:53:54.122Z,98727.06
2022-11-16T17:55:26.134Z,98725.34
2022-11-16T17:56:58.063Z,98721.88
2022-11-16T17:58:30.539Z,98728.59
2022-11-16T18:00:02.527Z,98723.41
2022-11-16T18:01:34.661Z,98726.78
2022-11-16T18:03:06.752Z,98720.69
2022-11-16T18:04:38.623Z,98723.22
2022-11-16T18:06:14.961Z,98722.22
2022-11-16T18:07:47.278Z,98723.91
2022-11-16T18:09:19.294Z,98720.41
2022-11-16T18:10:51.223Z,98715.09
2022-11-16T18:12:23.203Z,98718.56
2022-11-16T18:13:55.956Z,98723.75
2022-11-16T18:15:29.171Z,98722.81
2022-11-16T18:17:01.338Z,98723.66
2022-11-16T18:18:33.798Z,98722.81
2022-11-16T18:20:07.445Z,98722.00
2022-11-16T18:21:40.026Z,98720.22
2022-11-16T18:23:12.137Z,98723.75
2022-11-16T18:24:44.130Z,98716.84
2022-11-16T18:26:17.232Z,98713.59
2022-11-16T18:27:52.997Z,98718.84
2022-11-16T18:29:24.954Z,98716.25
2022-11-16T18:31:06.549Z,98716.31
2022-11-16T18:32:38.730Z,98717.16
2022-11-16T18:35:43.922Z,98713.66
2022-11-16T18:37:15.821Z,98707.63
2022-11-16T18:38:47.748Z,98709.34
2022-11-16T18:40:19.960Z,98704.16
2022-11-16T18:41:55.295Z,98709.34
2022-11-16T18:43:27.492Z,98698.13
2022-11-16T18:44:59.459Z,98702.41
2022-11-16T18:46:32.553Z,98703.31
2022-11-16T18:48:04.705Z,98707.75
2022-11-16T18:49:38.900Z,98694.81
2022-11-16T18:51:11.615Z,98698.28
2022-11-16T18:52:46.872Z,98693.97
2022-11-16T18:54:18.791Z,98694.13
2022-11-16T18:55:56.527Z,98700.25
2022-11-16T18:57:30.251Z,98691.59
2022-11-16T18:59:02.567Z,98686.53
2022-11-16T19:00:34.549Z,98690.06
2022-11-16T19:02:06.468Z,98686.69
2022-11-16T19:05:10.222Z,98688.53
2022-11-16T19:06:42.255Z,98694.63
2022-11-16T19:08:15.040Z,98692.03
2022-11-16T19:09:46.865Z,98697.22
2022-11-16T19:11:18.945Z,98702.34
2022-11-16T19:12:50.876Z,98701.53
2022-11-16T19:14:22.940Z,98704.97
2022-11-16T19:15:57.611Z,98698.09